sensor_id;sensor_type;location;lat;lon;timestamp;pressure;altitude;pressure_sealevel;temperature;humidity
27958;BME280;15295;42.658;23.374;2023-02-02T00:01:52;94618.63;;;9.83;35.25
27958;BME280;15295;42.658;23.374;2023-02-02T00:04:30;94608.50;;;9.66;35.09
27958;BME280;15295;42.658;23.374;2023-02-02T00:06:57;94610.03;;;9.77;35.13
27958;BME280;15295;42.658;23.374;2023-02-02T00:09:29;94612.78;;;9.81;35.40
27958;BME280;15295;42.658;23.374;2023-02-02T00:11:57;94652.13;;;10.04;35.58
27958;BME280;15295;42.658;23.374;2023-02-02T00:14:23;94596.00;;;9.75;35.42
27958;BME280;15295;42.658;23.374;2023-02-02T00:16:51;94615.09;;;9.93;35.53
27958;BME280;15295;42.658;23.374;2023-02-02T00:19:20;94633.03;;;10.04;35.38
27958;BME280;15295;42.658;23.374;2023-02-02T00:21:46;94609.63;;;9.86;35.58
27958;BME280;15295;42.658;23.374;2023-02-02T00:24:21;94620.16;;;9.91;35.34
27958;BME280;15295;42.658;23.374;2023-02-02T00:26:50;94639.63;;;10.03;35.53
27958;BME280;15295;42.658;23.374;2023-02-02T00:29:20;94639.69;;;10.11;35.57
27958;BME280;15295;42.658;23.374;2023-02-02T00:31:47;94624.84;;;9.94;35.50
27958;BME280;15295;42.658;23.374;2023-02-02T00:34:14;94642.78;;;10.13;35.55
27958;BME280;15295;42.658;23.374;2023-02-02T00:36:41;94620.53;;;10.00;35.44
27958;BME280;15295;42.658;23.374;2023-02-02T00:39:15;94625.25;;;9.96;35.54
27958;BME280;15295;42.658;23.374;2023-02-02T00:41:41;94659.56;;;10.15;35.58
27958;BME280;15295;42.658;23.374;2023-02-02T00:44:07;94663.84;;;10.12;35.69
27958;BME280;15295;42.658;23.374;2023-02-02T00:46:52;94636.56;;;9.87;35.62
27958;BME280;15295;42.658;23.374;2023-02-02T00:49:18;94658.38;;;10.05;35.58
27958;BME280;15295;42.658;23.374;2023-02-02T00:51:45;94624.06;;;9.90;35.51
27958;BME280;15295;42.658;23.374;2023-02-02T00:54:10;94619.78;;;9.89;35.78
27958;BME280;15295;42.658;23.374;2023-02-02T00:56:36;94663.06;;;10.15;35.80
27958;BME280;15295;42.658;23.374;2023-02-02T00:59:02;94646.66;;;10.08;35.94
27958;BME280;15295;42.658;23.374;2023-02-02T01:01:30;94628.75;;;9.93;35.88
27958;BME280;15295;42.658;23.374;2023-02-02T01:03:56;94628.34;;;9.80;36.23
27958;BME280;15295;42.658;23.374;2023-02-02T01:06:23;94649.00;;;9.88;36.67
27958;BME280;15295;42.658;23.374;2023-02-02T01:08:50;94604.56;;;9.67;37.00
27958;BME280;15295;42.658;23.374;2023-02-02T01:11:21;94631.09;;;9.77;37.31
27958;BME280;15295;42.658;23.374;2023-02-02T01:13:50;94641.22;;;9.83;37.46
27958;BME280;15295;42.658;23.374;2023-02-02T01:16:16;94601.06;;;9.52;37.83
27958;BME280;15295;42.658;23.374;2023-02-02T01:18:48;94636.94;;;9.72;38.42
27958;BME280;15295;42.658;23.374;2023-02-02T01:21:14;94629.94;;;9.71;38.44
27958;BME280;15295;42.658;23.374;2023-02-02T01:23:39;94601.47;;;9.51;38.63
27958;BME280;15295;42.658;23.374;2023-02-02T01:26:07;94608.47;;;9.59;38.79
27958;BME280;15295;42.658;23.374;2023-02-02T01:28:33;94595.25;;;9.47;38.94
27958;BME280;15295;42.658;23.374;2023-02-02T01:31:09;94616.28;;;9.57;39.03
27958;BME280;15295;42.658;23.374;2023-02-02T01:33:36;94625.63;;;9.70;39.08
27958;BME280;15295;42.658;23.374;2023-02-02T01:36:13;94580.41;;;9.48;39.09
27958;BME280;15295;42.658;23.374;2023-02-02T01:38:44;94623.28;;;9.72;39.00
27958;BME280;15295;42.658;23.374;2023-02-02T01:41:15;94587.44;;;9.52;38.85
27958;BME280;15295;42.658;23.374;2023-02-02T01:46:15;94578.09;;;9.57;38.78
27958;BME280;15295;42.658;23.374;2023-02-02T01:48:54;94605.34;;;9.78;38.73
27958;BME280;15295;42.658;23.374;2023-02-02T01:51:22;94601.84;;;9.74;38.69
27958;BME280;15295;42.658;23.374;2023-02-02T01:53:51;94558.22;;;9.46;38.73
27958;BME280;15295;42.658;23.374;2023-02-02T01:56:27;94597.19;;;9.71;38.65
27958;BME280;15295;42.658;23.374;2023-02-02T01:59:00;94568.34;;;9.42;39.01
27958;BME280;15295;42.658;23.374;2023-02-02T02:01:27;94581.19;;;9.38;39.13
27958;BME280;15295;42.658;23.374;2023-02-02T02:03:52;94548.47;;;9.27;39.41
27958;BME280;15295;42.658;23.374;2023-02-02T02:06:19;94557.41;;;9.24;39.44
27958;BME280;15295;42.658;23.374;2023-02-02T02:08:58;94590.16;;;9.42;39.42
27958;BME280;15295;42.658;23.374;2023-02-02T02:11:32;94574.97;;;9.19;39.67
27958;BME280;15295;42.658;23.374;2023-02-02T02:14:08;94565.22;;;9.15;39.99
27958;BME280;15295;42.658;23.374;2023-02-02T02:29:02;94559.34;;;8.85;40.21
27958;BME280;15295;42.658;23.374;2023-02-02T02:34:08;94604.50;;;8.96;40.38
27958;BME280;15295;42.658;23.374;2023-02-02T02:36:56;94599.06;;;8.96;40.46
27958;BME280;15295;42.658;23.374;2023-02-02T02:39:41;94592.03;;;8.92;40.87
27958;BME280;15295;42.658;23.374;2023-02-02T02:42:27;94566.31;;;8.75;40.65
27958;BME280;15295;42.658;23.374;2023-02-02T02:45:00;94548.75;;;8.62;40.74
27958;BME280;15295;42.658;23.374;2023-02-02T02:47:31;94590.06;;;8.82;40.82
27958;BME280;15295;42.658;23.374;2023-02-02T02:49:58;94570.56;;;8.66;41.04
27958;BME280;15295;42.658;23.374;2023-02-02T02:52:25;94583.44;;;8.72;41.05
27958;BME280;15295;42.658;23.374;2023-02-02T02:54:54;94563.59;;;8.68;40.91
27958;BME280;15295;42.658;23.374;2023-02-02T02:57:26;94599.41;;;8.81;40.92
27958;BME280;15295;42.658;23.374;2023-02-02T03:08:03;94581.44;;;8.59;41.15
27958;BME280;15295;42.658;23.374;2023-02-02T03:10:35;94576.78;;;8.59;41.37
27958;BME280;15295;42.658;23.374;2023-02-02T03:13:08;94586.53;;;8.67;41.27
27958;BME280;15295;42.658;23.374;2023-02-02T03:15:45;94596.28;;;8.72;41.09
27958;BME280;15295;42.658;23.374;2023-02-02T03:18:16;94571.72;;;8.61;41.15
27958;BME280;15295;42.658;23.374;2023-02-02T03:20:45;94590.03;;;8.75;41.13
27958;BME280;15295;42.658;23.374;2023-02-02T03:23:12;94588.50;;;8.74;41.20
27958;BME280;15295;42.658;23.374;2023-02-02T03:25:40;94551.06;;;8.49;41.19
27958;BME280;15295;42.658;23.374;2023-02-02T03:28:05;94563.13;;;8.55;41.36
27958;BME280;15295;42.658;23.374;2023-02-02T03:30:31;94583.03;;;8.77;41.12
27958;BME280;15295;42.658;23.374;2023-02-02T03:32:57;94565.88;;;8.66;40.87
27958;BME280;15295;42.658;23.374;2023-02-02T03:35:25;94566.28;;;8.65;41.07
27958;BME280;15295;42.658;23.374;2023-02-02T03:37:51;94558.47;;;8.56;41.03
27958;BME280;15295;42.658;23.374;2023-02-02T03:40:19;94562.75;;;8.57;40.90
27958;BME280;15295;42.658;23.374;2023-02-02T03:42:44;94595.91;;;8.77;40.91
27958;BME280;15295;42.658;23.374;2023-02-02T03:45:12;94584.97;;;8.70;40.96
27958;BME280;15295;42.658;23.374;2023-02-02T03:47:39;94564.72;;;8.64;41.00
27958;BME280;15295;42.658;23.374;2023-02-02T03:50:08;94580.28;;;8.63;40.96
27958;BME280;15295;42.658;23.374;2023-02-02T03:52:33;94569.31;;;8.49;40.99
27958;BME280;15295;42.658;23.374;2023-02-02T03:54:59;94585.75;;;8.67;41.01
27958;BME280;15295;42.658;23.374;2023-02-02T03:57:24;94575.19;;;8.51;41.30
27958;BME280;15295;42.658;23.374;2023-02-02T03:59:52;94602.88;;;8.67;41.56
27958;BME280;15295;42.658;23.374;2023-02-02T04:02:19;94574.78;;;8.49;41.68
27958;BME280;15295;42.658;23.374;2023-02-02T04:04:45;94575.56;;;8.42;41.79
27958;BME280;15295;42.658;23.374;2023-02-02T04:07:10;94561.47;;;8.30;42.05
27958;BME280;15295;42.658;23.374;2023-02-02T04:09:35;94562.19;;;8.20;42.22
27958;BME280;15295;42.658;23.374;2023-02-02T04:12:04;94558.31;;;8.21;42.24
27958;BME280;15295;42.658;23.374;2023-02-02T04:14:29;94565.31;;;8.22;42.46
27958;BME280;15295;42.658;23.374;2023-02-02T04:16:56;94587.91;;;8.26;42.83
27958;BME280;15295;42.658;23.374;2023-02-02T04:19:22;94563.31;;;8.12;42.88
27958;BME280;15295;42.658;23.374;2023-02-02T04:21:47;94610.84;;;8.25;43.13
27958;BME280;15295;42.658;23.374;2023-02-02T04:24:14;94610.81;;;8.21;43.12
27958;BME280;15295;42.658;23.374;2023-02-02T04:26:39;94570.19;;;7.88;43.26
27958;BME280;15295;42.658;23.374;2023-02-02T04:29:05;94599.44;;;8.05;43.55
27958;BME280;15295;42.658;23.374;2023-02-02T04:31:31;94576.78;;;7.87;43.22
27958;BME280;15295;42.658;23.374;2023-02-02T04:34:02;94602.16;;;8.02;43.26
27958;BME280;15295;42.658;23.374;2023-02-02T04:36:27;94577.16;;;7.86;43.26
27958;BME280;15295;42.658;23.374;2023-02-02T04:38:54;94584.97;;;7.91;43.11
27958;BME280;15295;42.658;23.374;2023-02-02T04:41:25;94571.72;;;7.86;43.10
27958;BME280;15295;42.658;23.374;2023-02-02T04:43:53;94581.47;;;7.87;43.39
27958;BME280;15295;42.658;23.374;2023-02-02T04:46:19;94612.22;;;7.98;43.20
27958;BME280;15295;42.658;23.374;2023-02-02T04:48:51;94600.13;;;7.92;43.15
27958;BME280;15295;42.658;23.374;2023-02-02T04:51:23;94591.50;;;7.75;43.36
27958;BME280;15295;42.658;23.374;2023-02-02T04:53:51;94625.81;;;7.98;43.40
27958;BME280;15295;42.658;23.374;2023-02-02T04:56:17;94590.69;;;7.71;43.69
27958;BME280;15295;42.658;23.374;2023-02-02T04:58:44;94593.03;;;7.73;43.69
27958;BME280;15295;42.658;23.374;2023-02-02T05:01:18;94585.53;;;7.59;43.80
27958;BME280;15295;42.658;23.374;2023-02-02T05:03:44;94595.28;;;7.60;43.55
27958;BME280;15295;42.658;23.374;2023-02-02T05:06:12;94622.59;;;7.78;43.70
27958;BME280;15295;42.658;23.374;2023-02-02T05:08:38;94600.69;;;7.57;43.90
27958;BME280;15295;42.658;23.374;2023-02-02T05:11:18;94567.19;;;7.46;43.92
27958;BME280;15295;42.658;23.374;2023-02-02T05:13:52;94606.22;;;7.71;43.79
27958;BME280;15295;42.658;23.374;2023-02-02T05:16:20;94568.75;;;7.47;43.73
27958;BME280;15295;42.658;23.374;2023-02-02T05:18:56;94621.03;;;7.80;43.53
27958;BME280;15295;42.658;23.374;2023-02-02T05:21:23;94581.69;;;7.64;43.31
27958;BME280;15295;42.658;23.374;2023-02-02T05:23:50;94598.44;;;7.69;43.33
27958;BME280;15295;42.658;23.374;2023-02-02T05:26:19;94608.28;;;7.85;43.15
27958;BME280;15295;42.658;23.374;2023-02-02T05:28:45;94598.06;;;7.74;42.94
27958;BME280;15295;42.658;23.374;2023-02-02T05:31:12;94591.50;;;7.75;42.59
27958;BME280;15295;42.658;23.374;2023-02-02T05:33:38;94610.59;;;7.83;42.55
27958;BME280;15295;42.658;23.374;2023-02-02T05:36:04;94570.34;;;7.51;42.83
27958;BME280;15295;42.658;23.374;2023-02-02T05:38:31;94572.31;;;7.58;42.86
27958;BME280;15295;42.658;23.374;2023-02-02T05:40:57;94603.91;;;7.73;43.13
27958;BME280;15295;42.658;23.374;2023-02-02T05:43:28;94625.66;;;7.69;43.41
27958;BME280;15295;42.658;23.374;2023-02-02T05:45:57;94630.31;;;7.69;43.78
27958;BME280;15295;42.658;23.374;2023-02-02T05:48:23;94619.97;;;7.41;44.41
27958;BME280;15295;42.658;23.374;2023-02-02T05:53:31;94637.41;;;7.33;44.98
27958;BME280;15295;42.658;23.374;2023-02-02T05:55:57;94626.44;;;7.26;45.32
27958;BME280;15295;42.658;23.374;2023-02-02T05:58:23;94629.69;;;6.98;46.18
27958;BME280;15295;42.658;23.374;2023-02-02T06:00:54;94625.56;;;6.78;46.32
27958;BME280;15295;42.658;23.374;2023-02-02T06:03:26;94634.88;;;6.77;46.59
27958;BME280;15295;42.658;23.374;2023-02-02T06:05:51;94609.03;;;6.57;46.79
27958;BME280;15295;42.658;23.374;2023-02-02T06:08:23;94621.94;;;6.67;46.82
27958;BME280;15295;42.658;23.374;2023-02-02T06:10:48;94632.06;;;6.67;46.95
27958;BME280;15295;42.658;23.374;2023-02-02T06:13:14;94643.63;;;6.60;47.05
27958;BME280;15295;42.658;23.374;2023-02-02T06:15:41;94601.84;;;6.39;47.07
27958;BME280;15295;42.658;23.374;2023-02-02T06:18:07;94622.22;;;6.55;47.02
27958;BME280;15295;42.658;23.374;2023-02-02T06:20:33;94636.03;;;6.76;46.96
27958;BME280;15295;42.658;23.374;2023-02-02T06:23:01;94639.44;;;6.70;47.01
27958;BME280;15295;42.658;23.374;2023-02-02T06:25:26;94669.50;;;6.84;46.87
27958;BME280;15295;42.658;23.374;2023-02-02T06:27:56;94638.25;;;6.67;46.83
27958;BME280;15295;42.658;23.374;2023-02-02T06:30:22;94647.34;;;6.82;46.74
27958;BME280;15295;42.658;23.374;2023-02-02T06:32:48;94670.25;;;6.84;46.41
27958;BME280;15295;42.658;23.374;2023-02-02T06:35:14;94665.28;;;6.90;46.49
27958;BME280;15295;42.658;23.374;2023-02-02T06:37:40;94651.22;;;6.81;46.57
27958;BME280;15295;42.658;23.374;2023-02-02T06:40:08;94677.78;;;6.98;46.43
27958;BME280;15295;42.658;23.374;2023-02-02T06:42:35;94679.41;;;7.03;45.49
27958;BME280;15295;42.658;23.374;2023-02-02T06:45:02;94698.41;;;7.03;45.85
27958;BME280;15295;42.658;23.374;2023-02-02T06:47:28;94673.84;;;6.92;46.38
27958;BME280;15295;42.658;23.374;2023-02-02T06:49:56;94686.84;;;7.09;46.45
27958;BME280;15295;42.658;23.374;2023-02-02T06:52:21;94679.88;;;7.12;46.23
27958;BME280;15295;42.658;23.374;2023-02-02T06:54:48;94673.28;;;7.13;46.44
27958;BME280;15295;42.658;23.374;2023-02-02T06:57:14;94673.94;;;6.99;46.27
27958;BME280;15295;42.658;23.374;2023-02-02T06:59:41;94692.59;;;7.04;46.64
27958;BME280;15295;42.658;23.374;2023-02-02T07:02:11;94682.41;;;6.94;46.71
27958;BME280;15295;42.658;23.374;2023-02-02T07:04:37;94688.66;;;6.98;46.77
27958;BME280;15295;42.658;23.374;2023-02-02T07:07:03;94658.16;;;6.78;46.55
27958;BME280;15295;42.658;23.374;2023-02-02T07:09:34;94700.34;;;7.02;46.85
27958;BME280;15295;42.658;23.374;2023-02-02T07:12:00;94689.38;;;6.95;46.78
27958;BME280;15295;42.658;23.374;2023-02-02T07:14:28;94696.41;;;6.96;46.77
27958;BME280;15295;42.658;23.374;2023-02-02T07:16:54;94692.59;;;7.04;47.00
27958;BME280;15295;42.658;23.374;2023-02-02T07:19:19;94652.00;;;6.81;46.98
27958;BME280;15295;42.658;23.374;2023-02-02T07:21:51;94654.66;;;6.78;47.15
27958;BME280;15295;42.658;23.374;2023-02-02T07:24:18;94698.72;;;6.94;47.14
27958;BME280;15295;42.658;23.374;2023-02-02T07:26:45;94650.97;;;6.60;47.30
27958;BME280;15295;42.658;23.374;2023-02-02T07:29:14;94704.22;;;7.01;47.42
27958;BME280;15295;42.658;23.374;2023-02-02T07:31:40;94678.47;;;6.88;47.20
27958;BME280;15295;42.658;23.374;2023-02-02T07:34:08;94707.41;;;7.10;46.81
27958;BME280;15295;42.658;23.374;2023-02-02T07:36:34;94680.81;;;6.93;47.01
27958;BME280;15295;42.658;23.374;2023-02-02T07:39:02;94709.81;;;7.15;46.89
27958;BME280;15295;42.658;23.374;2023-02-02T07:41:32;94718.47;;;7.24;47.06
27958;BME280;15295;42.658;23.374;2023-02-02T07:43:59;94709.13;;;7.25;46.89
27958;BME280;15295;42.658;23.374;2023-02-02T07:46:28;94667.19;;;7.23;46.62
27958;BME280;15295;42.658;23.374;2023-02-02T07:48:54;94684.53;;;7.48;46.23
27958;BME280;15295;42.658;23.374;2023-02-02T07:51:21;94668.25;;;7.55;45.98
27958;BME280;15295;42.658;23.374;2023-02-02T07:53:49;94688.34;;;7.87;45.76
27958;BME280;15295;42.658;23.374;2023-02-02T07:56:24;94685.41;;;8.10;45.29
27958;BME280;15295;42.658;23.374;2023-02-02T07:58:52;94670.47;;;8.44;44.34
27958;BME280;15295;42.658;23.374;2023-02-02T08:01:18;94668.28;;;8.78;44.14
27958;BME280;15295;42.658;23.374;2023-02-02T08:03:47;94641.19;;;9.23;43.68
27958;BME280;15295;42.658;23.374;2023-02-02T08:08:44;94654.03;;;10.53;41.58
27958;BME280;15295;42.658;23.374;2023-02-02T08:11:11;94647.91;;;11.15;40.25
27958;BME280;15295;42.658;23.374;2023-02-02T08:13:38;94648.47;;;11.54;38.48
27958;BME280;15295;42.658;23.374;2023-02-02T08:16:10;94652.19;;;11.81;37.84
27958;BME280;15295;42.658;23.374;2023-02-02T08:18:38;94653.19;;;12.05;37.46
27958;BME280;15295;42.658;23.374;2023-02-02T08:21:06;94637.63;;;12.35;37.15
27958;BME280;15295;42.658;23.374;2023-02-02T08:23:33;94630.94;;;12.40;36.76
27958;BME280;15295;42.658;23.374;2023-02-02T08:26:10;94653.41;;;12.62;36.49
27958;BME280;15295;42.658;23.374;2023-02-02T08:28:36;94632.44;;;12.45;37.10
27958;BME280;15295;42.658;23.374;2023-02-02T08:31:23;94647.44;;;12.70;36.60
27958;BME280;15295;42.658;23.374;2023-02-02T08:33:49;94606.28;;;12.74;35.91
27958;BME280;15295;42.658;23.374;2023-02-02T08:36:20;94647.19;;;13.25;35.76
27958;BME280;15295;42.658;23.374;2023-02-02T08:38:47;94621.97;;;13.60;34.68
27958;BME280;15295;42.658;23.374;2023-02-02T08:41:17;94607.38;;;13.90;33.49
27958;BME280;15295;42.658;23.374;2023-02-02T08:43:44;94606.75;;;13.82;33.34
27958;BME280;15295;42.658;23.374;2023-02-02T08:46:12;94625.44;;;14.14;32.87
27958;BME280;15295;42.658;23.374;2023-02-02T08:48:39;94606.50;;;13.97;32.88
27958;BME280;15295;42.658;23.374;2023-02-02T08:51:09;94621.91;;;13.90;32.84
27958;BME280;15295;42.658;23.374;2023-02-02T08:53:34;94601.59;;;14.08;32.41
27958;BME280;15295;42.658;23.374;2023-02-02T08:58:47;94621.41;;;13.72;33.40
27958;BME280;15295;42.658;23.374;2023-02-02T09:01:19;94609.88;;;13.31;33.93
27958;BME280;15295;42.658;23.374;2023-02-02T09:03:45;94637.66;;;13.06;34.47
27958;BME280;15295;42.658;23.374;2023-02-02T09:06:13;94608.72;;;12.65;34.64
27958;BME280;15295;42.658;23.374;2023-02-02T09:08:39;94633.09;;;12.56;35.31
27958;BME280;15295;42.658;23.374;2023-02-02T09:11:08;94635.06;;;12.18;36.21
27958;BME280;15295;42.658;23.374;2023-02-02T09:13:35;94601.44;;;11.73;36.71
27958;BME280;15295;42.658;23.374;2023-02-02T09:16:02;94587.56;;;11.43;37.40
27958;BME280;15295;42.658;23.374;2023-02-02T09:18:28;94568.88;;;11.31;37.75
27958;BME280;15295;42.658;23.374;2023-02-02T09:20:54;94576.78;;;11.15;37.86
27958;BME280;15295;42.658;23.374;2023-02-02T09:23:23;94578.91;;;10.90;38.05
27958;BME280;15295;42.658;23.374;2023-02-02T09:25:50;94615.97;;;11.01;38.39
27958;BME280;15295;42.658;23.374;2023-02-02T09:28:17;94581.72;;;10.72;38.73
27958;BME280;15295;42.658;23.374;2023-02-02T09:30:42;94597.69;;;10.80;38.42
27958;BME280;15295;42.658;23.374;2023-02-02T09:33:08;94603.53;;;10.86;38.63
27958;BME280;15295;42.658;23.374;2023-02-02T09:35:33;94598.47;;;10.81;38.62
27958;BME280;15295;42.658;23.374;2023-02-02T09:37:59;94577.72;;;10.91;38.58
27958;BME280;15295;42.658;23.374;2023-02-02T09:40:25;94541.41;;;10.90;37.78
27958;BME280;15295;42.658;23.374;2023-02-02T09:45:55;94581.50;;;12.13;37.00
27958;BME280;15295;42.658;23.374;2023-02-02T09:48:59;94592.72;;;12.60;36.00
27958;BME280;15295;42.658;23.374;2023-02-02T09:51:20;94570.22;;;12.75;35.47
27958;BME280;15295;42.658;23.374;2023-02-02T09:54:05;94573.78;;;13.06;34.73
27958;BME280;15295;42.658;23.374;2023-02-02T09:56:42;94579.91;;;13.17;34.38
27958;BME280;15295;42.658;23.374;2023-02-02T09:59:32;94556.47;;;13.09;34.06
27958;BME280;15295;42.658;23.374;2023-02-02T10:02:12;94548.59;;;13.38;33.78
27958;BME280;15295;42.658;23.374;2023-02-02T10:04:41;94554.75;;;13.45;33.56
27958;BME280;15295;42.658;23.374;2023-02-02T10:07:14;94553.53;;;13.73;31.99
27958;BME280;15295;42.658;23.374;2023-02-02T10:09:49;94552.22;;;13.81;31.60
27958;BME280;15295;42.658;23.374;2023-02-02T10:12:33;94554.63;;;13.79;31.20
27958;BME280;15295;42.658;23.374;2023-02-02T10:23:57;94541.56;;;14.06;32.22
27958;BME280;15295;42.658;23.374;2023-02-02T10:26:37;94559.53;;;14.34;31.50
27958;BME280;15295;42.658;23.374;2023-02-02T10:29:18;94509.63;;;13.92;31.48
27958;BME280;15295;42.658;23.374;2023-02-02T10:34:39;94541.59;;;13.83;31.37
27958;BME280;15295;42.658;23.374;2023-02-02T10:45:40;94503.31;;;14.58;30.67
27958;BME280;15295;42.658;23.374;2023-02-02T10:48:14;94508.34;;;14.79;29.42
27958;BME280;15295;42.658;23.374;2023-02-02T10:50:48;94496.22;;;14.77;28.92
27958;BME280;15295;42.658;23.374;2023-02-02T10:53:16;94456.38;;;15.01;28.67
27958;BME280;15295;42.658;23.374;2023-02-02T10:55:49;94455.59;;;15.16;27.91
27958;BME280;15295;42.658;23.374;2023-02-02T11:00:54;94483.28;;;16.06;27.22
27958;BME280;15295;42.658;23.374;2023-02-02T11:03:27;94454.94;;;16.34;26.73
27958;BME280;15295;42.658;23.374;2023-02-02T11:05:53;94452.66;;;16.74;25.83
27958;BME280;15295;42.658;23.374;2023-02-02T11:08:47;94473.41;;;16.78;25.78
27958;BME280;15295;42.658;23.374;2023-02-02T11:11:30;94481.38;;;17.27;25.08
27958;BME280;15295;42.658;23.374;2023-02-02T11:14:03;94450.88;;;17.18;25.45
27958;BME280;15295;42.658;23.374;2023-02-02T11:16:40;94432.09;;;17.38;25.14
27958;BME280;15295;42.658;23.374;2023-02-02T11:19:22;94447.97;;;17.71;24.49
27958;BME280;15295;42.658;23.374;2023-02-02T11:21:57;94429.50;;;17.81;24.30
27958;BME280;15295;42.658;23.374;2023-02-02T11:24:43;94438.00;;;17.87;24.07
27958;BME280;15295;42.658;23.374;2023-02-02T11:27:16;94456.47;;;17.77;24.25
27958;BME280;15295;42.658;23.374;2023-02-02T11:29:46;94445.41;;;18.11;23.99
27958;BME280;15295;42.658;23.374;2023-02-02T11:32:30;94416.31;;;18.19;23.93
27958;BME280;15295;42.658;23.374;2023-02-02T11:37:37;94429.50;;;18.15;23.39
27958;BME280;15295;42.658;23.374;2023-02-02T11:42:59;94401.88;;;17.81;23.34
27958;BME280;15295;42.658;23.374;2023-02-02T11:45:35;94391.44;;;17.38;23.66
27958;BME280;15295;42.658;23.374;2023-02-02T11:48:05;94399.81;;;17.47;23.82
27958;BME280;15295;42.658;23.374;2023-02-02T11:50:32;94377.50;;;17.42;23.83
27958;BME280;15295;42.658;23.374;2023-02-02T11:53:00;94392.00;;;17.80;23.85
27958;BME280;15295;42.658;23.374;2023-02-02T11:55:28;94373.97;;;17.54;23.23
27958;BME280;15295;42.658;23.374;2023-02-02T11:58:17;94395.78;;;18.29;23.22
27958;BME280;15295;42.658;23.374;2023-02-02T12:00:47;94385.28;;;17.81;23.58
27958;BME280;15295;42.658;23.374;2023-02-02T12:05:50;94390.13;;;17.77;23.52
27958;BME280;15295;42.658;23.374;2023-02-02T12:08:16;94350.47;;;17.71;23.39
27958;BME280;15295;42.658;23.374;2023-02-02T12:10:56;94388.72;;;18.07;23.60
27958;BME280;15295;42.658;23.374;2023-02-02T12:24:57;94351.84;;;17.54;23.50
27958;BME280;15295;42.658;23.374;2023-02-02T12:27:43;94403.19;;;17.30;24.34
27958;BME280;15295;42.658;23.374;2023-02-02T12:30:49;94400.44;;;16.79;25.08
27958;BME280;15295;42.658;23.374;2023-02-02T12:41:32;94397.97;;;15.25;25.88
27958;BME280;15295;42.658;23.374;2023-02-02T12:47:24;94372.06;;;14.58;26.46
27958;BME280;15295;42.658;23.374;2023-02-02T12:50:29;94392.59;;;14.54;26.89
27958;BME280;15295;42.658;23.374;2023-02-02T13:01:31;94399.97;;;14.02;28.13
27958;BME280;15295;42.658;23.374;2023-02-02T13:12:10;94354.25;;;13.72;28.37
27958;BME280;15295;42.658;23.374;2023-02-02T13:14:44;94369.03;;;13.78;28.29
27958;BME280;15295;42.658;23.374;2023-02-02T13:17:40;94386.78;;;14.13;28.45
27958;BME280;15295;42.658;23.374;2023-02-02T13:23:27;94350.72;;;13.91;27.96
27958;BME280;15295;42.658;23.374;2023-02-02T13:26:05;94366.44;;;13.90;28.09
27958;BME280;15295;42.658;23.374;2023-02-02T13:28:39;94390.38;;;14.10;28.52
27958;BME280;15295;42.658;23.374;2023-02-02T13:31:13;94369.09;;;14.14;28.04
27958;BME280;15295;42.658;23.374;2023-02-02T13:33:42;94366.56;;;14.03;28.29
27958;BME280;15295;42.658;23.374;2023-02-02T13:36:17;94384.75;;;14.17;28.54
27958;BME280;15295;42.658;23.374;2023-02-02T13:38:53;94380.44;;;14.16;28.42
27958;BME280;15295;42.658;23.374;2023-02-02T13:41:21;94344.88;;;13.89;28.59
27958;BME280;15295;42.658;23.374;2023-02-02T13:49:29;94386.03;;;14.32;27.73
27958;BME280;15295;42.658;23.374;2023-02-02T13:52:23;94379.31;;;14.13;27.60
27958;BME280;15295;42.658;23.374;2023-02-02T13:58:27;94389.44;;;14.16;28.08
27958;BME280;15295;42.658;23.374;2023-02-02T14:01:04;94386.38;;;14.34;27.94
27958;BME280;15295;42.658;23.374;2023-02-02T14:03:34;94369.03;;;14.37;28.17
27958;BME280;15295;42.658;23.374;2023-02-02T14:08:29;94387.94;;;14.51;28.33
27958;BME280;15295;42.658;23.374;2023-02-02T14:10:56;94394.78;;;14.62;28.59
27958;BME280;15295;42.658;23.374;2023-02-02T14:16:23;94362.66;;;14.20;31.05
27958;BME280;15295;42.658;23.374;2023-02-02T14:19:13;94390.09;;;14.24;31.21
27958;BME280;15295;42.658;23.374;2023-02-02T14:37:40;94402.50;;;12.80;33.99
27958;BME280;15295;42.658;23.374;2023-02-02T14:43:01;94432.56;;;12.61;34.96
27958;BME280;15295;42.658;23.374;2023-02-02T14:49:26;94476.78;;;12.32;38.23
27958;BME280;15295;42.658;23.374;2023-02-02T14:51:28;94472.69;;;11.80;41.67
27958;BME280;15295;42.658;23.374;2023-02-02T14:54:02;94505.19;;;11.75;44.10
27958;BME280;15295;42.658;23.374;2023-02-02T14:56:47;94505.31;;;11.13;46.47
27958;BME280;15295;42.658;23.374;2023-02-02T14:59:18;94513.72;;;10.81;47.50
27958;BME280;15295;42.658;23.374;2023-02-02T15:01:54;94511.13;;;10.56;48.94
27958;BME280;15295;42.658;23.374;2023-02-02T15:06:50;94544.50;;;9.98;50.66
27958;BME280;15295;42.658;23.374;2023-02-02T15:14:35;94590.56;;;9.58;52.01
27958;BME280;15295;42.658;23.374;2023-02-02T15:25:55;94621.47;;;8.47;54.27
27958;BME280;15295;42.658;23.374;2023-02-02T15:33:58;94600.25;;;8.06;55.12
27958;BME280;15295;42.658;23.374;2023-02-02T15:36:33;94615.75;;;8.02;55.82
27958;BME280;15295;42.658;23.374;2023-02-02T15:39:29;94644.19;;;8.11;55.90
27958;BME280;15295;42.658;23.374;2023-02-02T15:41:55;94651.53;;;8.04;55.96
27958;BME280;15295;42.658;23.374;2023-02-02T15:44:39;94641.34;;;7.94;56.44
27958;BME280;15295;42.658;23.374;2023-02-02T15:47:10;94642.81;;;7.80;56.65
27958;BME280;15295;42.658;23.374;2023-02-02T15:49:38;94651.41;;;7.83;56.73
27958;BME280;15295;42.658;23.374;2023-02-02T15:52:16;94624.69;;;7.48;57.09
27958;BME280;15295;42.658;23.374;2023-02-02T15:54:54;94625.38;;;7.38;57.35
27958;BME280;15295;42.658;23.374;2023-02-02T15:59:58;94648.38;;;7.47;57.16
27958;BME280;15295;42.658;23.374;2023-02-02T16:02:39;94669.00;;;7.48;57.20
27958;BME280;15295;42.658;23.374;2023-02-02T16:08:01;94678.94;;;7.34;57.48